sensor_id;sensor_type;location;lat;lon;timestamp;pressure;altitude;pressure_sealevel;temperature
10058;BMP180;5068;51.286;7.518;2023-07-13T00:00:47;99326.00;;;17.30
10058;BMP180;5068;51.286;7.518;2023-07-13T00:02:20;99326.00;;;17.30
10058;BMP180;5068;51.286;7.518;2023-07-13T00:03:53;99329.00;;;17.20
10058;BMP180;5068;51.286;7.518;2023-07-13T00:05:26;99326.00;;;17.20
10058;BMP180;5068;51.286;7.518;2023-07-13T00:06:59;99326.00;;;17.20
10058;BMP180;5068;51.286;7.518;2023-07-13T00:08:33;99327.00;;;17.20
10058;BMP180;5068;51.286;7.518;2023-07-13T00:10:08;99327.00;;;17.10
10058;BMP180;5068;51.286;7.518;2023-07-13T00:11:42;99334.00;;;17.10
10058;BMP180;5068;51.286;7.518;2023-07-13T00:13:16;99338.00;;;17.10
10058;BMP180;5068;51.286;7.518;2023-07-13T00:14:49;99350.00;;;17.00
10058;BMP180;5068;51.286;7.518;2023-07-13T00:16:22;99332.00;;;17.00
10058;BMP180;5068;51.286;7.518;2023-07-13T00:17:55;99339.00;;;17.00
10058;BMP180;5068;51.286;7.518;2023-07-13T00:19:28;99335.00;;;17.00
10058;BMP180;5068;51.286;7.518;2023-07-13T00:21:01;99324.00;;;17.00
10058;BMP180;5068;51.286;7.518;2023-07-13T00:22:38;99339.00;;;16.90
10058;BMP180;5068;51.286;7.518;2023-07-13T00:24:14;99332.00;;;16.90
10058;BMP180;5068;51.286;7.518;2023-07-13T00:25:48;99328.00;;;16.80
10058;BMP180;5068;51.286;7.518;2023-07-13T00:27:24;99331.00;;;16.80
10058;BMP180;5068;51.286;7.518;2023-07-13T00:29:00;99326.00;;;16.70
10058;BMP180;5068;51.286;7.518;2023-07-13T00:30:34;99330.00;;;16.70
10058;BMP180;5068;51.286;7.518;2023-07-13T00:32:08;99326.00;;;16.60
10058;BMP180;5068;51.286;7.518;2023-07-13T00:33:41;99327.00;;;16.60
10058;BMP180;5068;51.286;7.518;2023-07-13T00:35:15;99329.00;;;16.50
10058;BMP180;5068;51.286;7.518;2023-07-13T00:36:48;99328.00;;;16.50
10058;BMP180;5068;51.286;7.518;2023-07-13T00:38:21;99338.00;;;16.50
10058;BMP180;5068;51.286;7.518;2023-07-13T00:39:53;99331.00;;;16.40
10058;BMP180;5068;51.286;7.518;2023-07-13T00:41:26;99329.00;;;16.40
10058;BMP180;5068;51.286;7.518;2023-07-13T00:43:00;99333.00;;;16.40
10058;BMP180;5068;51.286;7.518;2023-07-13T00:44:35;99329.00;;;16.40
10058;BMP180;5068;51.286;7.518;2023-07-13T00:46:15;99335.00;;;16.30
10058;BMP180;5068;51.286;7.518;2023-07-13T00:47:47;99332.00;;;16.30
10058;BMP180;5068;51.286;7.518;2023-07-13T00:49:24;99328.00;;;16.20
10058;BMP180;5068;51.286;7.518;2023-07-13T00:51:01;99326.00;;;16.20
10058;BMP180;5068;51.286;7.518;2023-07-13T00:52:38;99323.00;;;16.20
10058;BMP180;5068;51.286;7.518;2023-07-13T00:54:17;99320.00;;;16.20
10058;BMP180;5068;51.286;7.518;2023-07-13T00:55:55;99317.00;;;16.10
10058;BMP180;5068;51.286;7.518;2023-07-13T00:57:28;99319.00;;;16.10
10058;BMP180;5068;51.286;7.518;2023-07-13T00:59:03;99312.00;;;16.10
10058;BMP180;5068;51.286;7.518;2023-07-13T01:00:40;99313.00;;;16.00
10058;BMP180;5068;51.286;7.518;2023-07-13T01:02:13;99316.00;;;16.00
10058;BMP180;5068;51.286;7.518;2023-07-13T01:03:46;99312.00;;;16.00
10058;BMP180;5068;51.286;7.518;2023-07-13T01:05:21;99314.00;;;16.00
10058;BMP180;5068;51.286;7.518;2023-07-13T01:06:56;99310.00;;;15.90
10058;BMP180;5068;51.286;7.518;2023-07-13T01:08:30;99314.00;;;15.90
10058;BMP180;5068;51.286;7.518;2023-07-13T01:10:07;99319.00;;;15.90
10058;BMP180;5068;51.286;7.518;2023-07-13T01:11:41;99312.00;;;15.80
10058;BMP180;5068;51.286;7.518;2023-07-13T01:13:13;99313.00;;;15.80
10058;BMP180;5068;51.286;7.518;2023-07-13T01:14:46;99316.00;;;15.70
10058;BMP180;5068;51.286;7.518;2023-07-13T01:16:26;99314.00;;;15.70
10058;BMP180;5068;51.286;7.518;2023-07-13T01:17:59;99316.00;;;15.60
10058;BMP180;5068;51.286;7.518;2023-07-13T01:19:37;99326.00;;;15.60
10058;BMP180;5068;51.286;7.518;2023-07-13T01:21:12;99319.00;;;15.60
10058;BMP180;5068;51.286;7.518;2023-07-13T01:22:45;99319.00;;;15.60
10058;BMP180;5068;51.286;7.518;2023-07-13T01:24:18;99330.00;;;15.60
10058;BMP180;5068;51.286;7.518;2023-07-13T01:25:52;99326.00;;;15.60
10058;BMP180;5068;51.286;7.518;2023-07-13T01:27:27;99326.00;;;15.60
10058;BMP180;5068;51.286;7.518;2023-07-13T01:29:00;99318.00;;;15.60
10058;BMP180;5068;51.286;7.518;2023-07-13T01:30:33;99324.00;;;15.60
10058;BMP180;5068;51.286;7.518;2023-07-13T01:32:09;99322.00;;;15.60
10058;BMP180;5068;51.286;7.518;2023-07-13T01:33:43;99323.00;;;15.50
10058;BMP180;5068;51.286;7.518;2023-07-13T01:35:15;99317.00;;;15.50
10058;BMP180;5068;51.286;7.518;2023-07-13T01:36:50;99318.00;;;15.50
10058;BMP180;5068;51.286;7.518;2023-07-13T01:38:26;99320.00;;;15.50
10058;BMP180;5068;51.286;7.518;2023-07-13T01:39:59;99315.00;;;15.40
10058;BMP180;5068;51.286;7.518;2023-07-13T01:41:32;99320.00;;;15.40
10058;BMP180;5068;51.286;7.518;2023-07-13T01:43:05;99313.00;;;15.30
10058;BMP180;5068;51.286;7.518;2023-07-13T01:44:38;99317.00;;;15.30
10058;BMP180;5068;51.286;7.518;2023-07-13T01:46:12;99320.00;;;15.30
10058;BMP180;5068;51.286;7.518;2023-07-13T01:47:55;99314.00;;;15.30
10058;BMP180;5068;51.286;7.518;2023-07-13T01:49:27;99322.00;;;15.20
10058;BMP180;5068;51.286;7.518;2023-07-13T01:51:00;99327.00;;;15.20
10058;BMP180;5068;51.286;7.518;2023-07-13T01:52:34;99315.00;;;15.10
10058;BMP180;5068;51.286;7.518;2023-07-13T01:54:07;99322.00;;;15.10
10058;BMP180;5068;51.286;7.518;2023-07-13T01:55:39;99304.00;;;15.10
10058;BMP180;5068;51.286;7.518;2023-07-13T01:57:13;99313.00;;;15.10
10058;BMP180;5068;51.286;7.518;2023-07-13T01:58:45;99320.00;;;15.10
10058;BMP180;5068;51.286;7.518;2023-07-13T02:00:18;99317.00;;;15.10
10058;BMP180;5068;51.286;7.518;2023-07-13T02:01:54;99321.00;;;15.10
10058;BMP180;5068;51.286;7.518;2023-07-13T02:03:27;99320.00;;;15.00
10058;BMP180;5068;51.286;7.518;2023-07-13T02:05:01;99317.00;;;15.00
10058;BMP180;5068;51.286;7.518;2023-07-13T02:06:35;99316.00;;;15.00
10058;BMP180;5068;51.286;7.518;2023-07-13T02:08:09;99327.00;;;15.00
10058;BMP180;5068;51.286;7.518;2023-07-13T02:09:42;99334.00;;;15.00
10058;BMP180;5068;51.286;7.518;2023-07-13T02:11:14;99329.00;;;14.90
10058;BMP180;5068;51.286;7.518;2023-07-13T02:12:48;99325.00;;;14.90
10058;BMP180;5068;51.286;7.518;2023-07-13T02:14:21;99324.00;;;14.80
10058;BMP180;5068;51.286;7.518;2023-07-13T02:15:55;99316.00;;;14.80
10058;BMP180;5068;51.286;7.518;2023-07-13T02:17:27;99318.00;;;14.80
10058;BMP180;5068;51.286;7.518;2023-07-13T02:19:00;99313.00;;;14.80
10058;BMP180;5068;51.286;7.518;2023-07-13T02:20:33;99319.00;;;14.70
10058;BMP180;5068;51.286;7.518;2023-07-13T02:22:06;99325.00;;;14.70
10058;BMP180;5068;51.286;7.518;2023-07-13T02:23:40;99313.00;;;14.70
10058;BMP180;5068;51.286;7.518;2023-07-13T02:25:13;99312.00;;;14.70
10058;BMP180;5068;51.286;7.518;2023-07-13T02:26:46;99311.00;;;14.70
10058;BMP180;5068;51.286;7.518;2023-07-13T02:28:20;99299.00;;;14.60
10058;BMP180;5068;51.286;7.518;2023-07-13T02:29:54;99308.00;;;14.60
10058;BMP180;5068;51.286;7.518;2023-07-13T02:31:26;99307.00;;;14.60
10058;BMP180;5068;51.286;7.518;2023-07-13T02:32:59;99318.00;;;14.60
10058;BMP180;5068;51.286;7.518;2023-07-13T02:34:32;99316.00;;;14.50
10058;BMP180;5068;51.286;7.518;2023-07-13T02:36:06;99312.00;;;14.50
10058;BMP180;5068;51.286;7.518;2023-07-13T02:37:39;99318.00;;;14.50
10058;BMP180;5068;51.286;7.518;2023-07-13T02:39:14;99313.00;;;14.50
10058;BMP180;5068;51.286;7.518;2023-07-13T02:40:47;99317.00;;;14.50
10058;BMP180;5068;51.286;7.518;2023-07-13T02:42:19;99306.00;;;14.50
10058;BMP180;5068;51.286;7.518;2023-07-13T02:43:52;99312.00;;;14.50
10058;BMP180;5068;51.286;7.518;2023-07-13T02:45:25;99305.00;;;14.50
10058;BMP180;5068;51.286;7.518;2023-07-13T02:46:58;99309.00;;;14.50
10058;BMP180;5068;51.286;7.518;2023-07-13T02:48:30;99314.00;;;14.50
10058;BMP180;5068;51.286;7.518;2023-07-13T02:50:13;99322.00;;;14.40
10058;BMP180;5068;51.286;7.518;2023-07-13T02:51:46;99315.00;;;14.40
10058;BMP180;5068;51.286;7.518;2023-07-13T02:53:19;99318.00;;;14.30
10058;BMP180;5068;51.286;7.518;2023-07-13T02:54:53;99309.00;;;14.30
10058;BMP180;5068;51.286;7.518;2023-07-13T02:56:29;99321.00;;;14.20
10058;BMP180;5068;51.286;7.518;2023-07-13T02:58:02;99313.00;;;14.20
10058;BMP180;5068;51.286;7.518;2023-07-13T02:59:36;99318.00;;;14.20
10058;BMP180;5068;51.286;7.518;2023-07-13T03:01:11;99320.00;;;14.10
10058;BMP180;5068;51.286;7.518;2023-07-13T03:02:45;99318.00;;;14.10
10058;BMP180;5068;51.286;7.518;2023-07-13T03:04:18;99318.00;;;14.10
10058;BMP180;5068;51.286;7.518;2023-07-13T03:05:59;99319.00;;;14.10
10058;BMP180;5068;51.286;7.518;2023-07-13T03:07:39;99322.00;;;14.10
10058;BMP180;5068;51.286;7.518;2023-07-13T03:09:13;99322.00;;;14.10
10058;BMP180;5068;51.286;7.518;2023-07-13T03:10:59;99320.00;;;14.00
10058;BMP180;5068;51.286;7.518;2023-07-13T03:12:35;99323.00;;;14.00
10058;BMP180;5068;51.286;7.518;2023-07-13T03:14:12;99316.00;;;14.00
10058;BMP180;5068;51.286;7.518;2023-07-13T03:15:48;99324.00;;;14.00
10058;BMP180;5068;51.286;7.518;2023-07-13T03:17:21;99326.00;;;14.00
10058;BMP180;5068;51.286;7.518;2023-07-13T03:18:54;99325.00;;;14.00
10058;BMP180;5068;51.286;7.518;2023-07-13T03:20:27;99333.00;;;14.00
10058;BMP180;5068;51.286;7.518;2023-07-13T03:21:59;99340.00;;;14.00
10058;BMP180;5068;51.286;7.518;2023-07-13T03:23:34;99334.00;;;14.00
10058;BMP180;5068;51.286;7.518;2023-07-13T03:25:07;99337.00;;;14.00
10058;BMP180;5068;51.286;7.518;2023-07-13T03:26:42;99331.00;;;14.00
10058;BMP180;5068;51.286;7.518;2023-07-13T03:28:15;99341.00;;;14.00
10058;BMP180;5068;51.286;7.518;2023-07-13T03:29:48;99315.00;;;13.90
10058;BMP180;5068;51.286;7.518;2023-07-13T03:31:34;99318.00;;;13.90
10058;BMP180;5068;51.286;7.518;2023-07-13T03:33:07;99328.00;;;13.90
10058;BMP180;5068;51.286;7.518;2023-07-13T03:34:40;99326.00;;;13.90
10058;BMP180;5068;51.286;7.518;2023-07-13T03:36:17;99334.00;;;13.90
10058;BMP180;5068;51.286;7.518;2023-07-13T03:37:52;99332.00;;;13.90
10058;BMP180;5068;51.286;7.518;2023-07-13T03:39:25;99345.00;;;13.90
10058;BMP180;5068;51.286;7.518;2023-07-13T03:41:00;99344.00;;;13.90
10058;BMP180;5068;51.286;7.518;2023-07-13T03:42:34;99337.00;;;13.90
10058;BMP180;5068;51.286;7.518;2023-07-13T03:44:08;99340.00;;;13.90
10058;BMP180;5068;51.286;7.518;2023-07-13T03:45:40;99338.00;;;13.90
10058;BMP180;5068;51.286;7.518;2023-07-13T03:47:14;99349.00;;;13.80
10058;BMP180;5068;51.286;7.518;2023-07-13T03:48:47;99343.00;;;13.80
10058;BMP180;5068;51.286;7.518;2023-07-13T03:50:21;99349.00;;;13.80
10058;BMP180;5068;51.286;7.518;2023-07-13T03:51:54;99344.00;;;13.80
10058;BMP180;5068;51.286;7.518;2023-07-13T03:53:27;99346.00;;;13.80
10058;BMP180;5068;51.286;7.518;2023-07-13T03:54:59;99344.00;;;13.70
10058;BMP180;5068;51.286;7.518;2023-07-13T03:56:33;99345.00;;;13.70
10058;BMP180;5068;51.286;7.518;2023-07-13T03:58:29;99346.00;;;13.70
10058;BMP180;5068;51.286;7.518;2023-07-13T04:00:11;99348.00;;;13.60
10058;BMP180;5068;51.286;7.518;2023-07-13T04:01:49;99345.00;;;13.60
10058;BMP180;5068;51.286;7.518;2023-07-13T04:03:23;99346.00;;;13.60
10058;BMP180;5068;51.286;7.518;2023-07-13T04:04:57;99355.00;;;13.60
10058;BMP180;5068;51.286;7.518;2023-07-13T04:06:31;99344.00;;;13.60
10058;BMP180;5068;51.286;7.518;2023-07-13T04:08:04;99351.00;;;13.60
10058;BMP180;5068;51.286;7.518;2023-07-13T04:09:38;99343.00;;;13.70
10058;BMP180;5068;51.286;7.518;2023-07-13T04:11:11;99343.00;;;13.70
10058;BMP180;5068;51.286;7.518;2023-07-13T04:12:43;99355.00;;;13.70
10058;BMP180;5068;51.286;7.518;2023-07-13T04:14:18;99351.00;;;13.70
10058;BMP180;5068;51.286;7.518;2023-07-13T04:15:52;99357.00;;;13.70
10058;BMP180;5068;51.286;7.518;2023-07-13T04:17:26;99353.00;;;13.70
10058;BMP180;5068;51.286;7.518;2023-07-13T04:18:58;99350.00;;;13.70
10058;BMP180;5068;51.286;7.518;2023-07-13T04:20:33;99349.00;;;13.70
10058;BMP180;5068;51.286;7.518;2023-07-13T04:22:05;99347.00;;;13.70
10058;BMP180;5068;51.286;7.518;2023-07-13T04:23:39;99342.00;;;13.70
10058;BMP180;5068;51.286;7.518;2023-07-13T04:25:11;99351.00;;;13.70
10058;BMP180;5068;51.286;7.518;2023-07-13T04:26:44;99348.00;;;13.70
10058;BMP180;5068;51.286;7.518;2023-07-13T04:28:17;99354.00;;;13.70
10058;BMP180;5068;51.286;7.518;2023-07-13T04:29:51;99346.00;;;13.70
10058;BMP180;5068;51.286;7.518;2023-07-13T04:31:24;99356.00;;;13.70
10058;BMP180;5068;51.286;7.518;2023-07-13T04:32:57;99357.00;;;13.70
10058;BMP180;5068;51.286;7.518;2023-07-13T04:34:30;99351.00;;;13.70
10058;BMP180;5068;51.286;7.518;2023-07-13T04:36:05;99354.00;;;13.70
10058;BMP180;5068;51.286;7.518;2023-07-13T04:37:41;99355.00;;;13.70
10058;BMP180;5068;51.286;7.518;2023-07-13T04:39:15;99352.00;;;13.70
10058;BMP180;5068;51.286;7.518;2023-07-13T04:40:47;99341.00;;;13.70
10058;BMP180;5068;51.286;7.518;2023-07-13T04:42:21;99354.00;;;13.70
10058;BMP180;5068;51.286;7.518;2023-07-13T04:43:54;99341.00;;;13.70
10058;BMP180;5068;51.286;7.518;2023-07-13T04:45:29;99345.00;;;13.80
10058;BMP180;5068;51.286;7.518;2023-07-13T04:47:04;99342.00;;;13.80
10058;BMP180;5068;51.286;7.518;2023-07-13T04:48:37;99346.00;;;13.80
10058;BMP180;5068;51.286;7.518;2023-07-13T04:50:13;99343.00;;;13.80
10058;BMP180;5068;51.286;7.518;2023-07-13T04:51:50;99335.00;;;13.80
10058;BMP180;5068;51.286;7.518;2023-07-13T04:53:24;99334.00;;;13.80
10058;BMP180;5068;51.286;7.518;2023-07-13T04:54:57;99345.00;;;13.80
10058;BMP180;5068;51.286;7.518;2023-07-13T04:56:30;99349.00;;;13.80
10058;BMP180;5068;51.286;7.518;2023-07-13T04:58:03;99346.00;;;13.80
10058;BMP180;5068;51.286;7.518;2023-07-13T04:59:37;99342.00;;;13.80
10058;BMP180;5068;51.286;7.518;2023-07-13T05:01:10;99338.00;;;13.80
10058;BMP180;5068;51.286;7.518;2023-07-13T05:02:45;99335.00;;;13.80
10058;BMP180;5068;51.286;7.518;2023-07-13T05:04:17;99335.00;;;13.90
10058;BMP180;5068;51.286;7.518;2023-07-13T05:05:59;99339.00;;;13.90
10058;BMP180;5068;51.286;7.518;2023-07-13T05:07:31;99347.00;;;13.90
10058;BMP180;5068;51.286;7.518;2023-07-13T05:09:05;99341.00;;;13.90
10058;BMP180;5068;51.286;7.518;2023-07-13T05:10:39;99347.00;;;14.00
10058;BMP180;5068;51.286;7.518;2023-07-13T05:12:12;99343.00;;;14.00
10058;BMP180;5068;51.286;7.518;2023-07-13T05:13:44;99346.00;;;14.10
10058;BMP180;5068;51.286;7.518;2023-07-13T05:15:20;99350.00;;;14.10
10058;BMP180;5068;51.286;7.518;2023-07-13T05:16:54;99347.00;;;14.20
10058;BMP180;5068;51.286;7.518;2023-07-13T05:18:30;99348.00;;;14.30
10058;BMP180;5068;51.286;7.518;2023-07-13T05:20:04;99349.00;;;14.40
10058;BMP180;5068;51.286;7.518;2023-07-13T05:21:38;99345.00;;;14.50
10058;BMP180;5068;51.286;7.518;2023-07-13T05:23:10;99356.00;;;14.70
10058;BMP180;5068;51.286;7.518;2023-07-13T05:24:43;99354.00;;;14.80
10058;BMP180;5068;51.286;7.518;2023-07-13T05:26:15;99366.00;;;14.90
10058;BMP180;5068;51.286;7.518;2023-07-13T05:27:48;99354.00;;;15.10
10058;BMP180;5068;51.286;7.518;2023-07-13T05:29:21;99352.00;;;15.20
10058;BMP180;5068;51.286;7.518;2023-07-13T05:30:55;99357.00;;;15.30
10058;BMP180;5068;51.286;7.518;2023-07-13T05:32:28;99355.00;;;15.50
10058;BMP180;5068;51.286;7.518;2023-07-13T05:34:02;99365.00;;;15.60
10058;BMP180;5068;51.286;7.518;2023-07-13T05:35:35;99358.00;;;15.70
10058;BMP180;5068;51.286;7.518;2023-07-13T05:37:09;99367.00;;;15.90
10058;BMP180;5068;51.286;7.518;2023-07-13T05:38:42;99368.00;;;16.00
10058;BMP180;5068;51.286;7.518;2023-07-13T05:40:14;99363.00;;;16.10
10058;BMP180;5068;51.286;7.518;2023-07-13T05:41:48;99369.00;;;16.20
10058;BMP180;5068;51.286;7.518;2023-07-13T05:43:20;99377.00;;;16.30
10058;BMP180;5068;51.286;7.518;2023-07-13T05:44:53;99369.00;;;16.40
10058;BMP180;5068;51.286;7.518;2023-07-13T05:46:25;99383.00;;;16.50
10058;BMP180;5068;51.286;7.518;2023-07-13T05:48:00;99393.00;;;16.60
10058;BMP180;5068;51.286;7.518;2023-07-13T05:49:32;99379.00;;;16.70
10058;BMP180;5068;51.286;7.518;2023-07-13T05:51:05;99380.00;;;16.80
10058;BMP180;5068;51.286;7.518;2023-07-13T05:52:39;99383.00;;;16.90
10058;BMP180;5068;51.286;7.518;2023-07-13T05:54:11;99382.00;;;17.00
10058;BMP180;5068;51.286;7.518;2023-07-13T05:55:46;99400.00;;;17.00
10058;BMP180;5068;51.286;7.518;2023-07-13T05:57:21;99394.00;;;17.10
10058;BMP180;5068;51.286;7.518;2023-07-13T05:58:55;99384.00;;;17.20
10058;BMP180;5068;51.286;7.518;2023-07-13T06:00:29;99396.00;;;17.20
10058;BMP180;5068;51.286;7.518;2023-07-13T06:02:01;99393.00;;;17.30
10058;BMP180;5068;51.286;7.518;2023-07-13T06:03:36;99393.00;;;17.40
10058;BMP180;5068;51.286;7.518;2023-07-13T06:05:09;99397.00;;;17.40
10058;BMP180;5068;51.286;7.518;2023-07-13T06:06:43;99408.00;;;17.50
10058;BMP180;5068;51.286;7.518;2023-07-13T06:08:15;99393.00;;;17.60
10058;BMP180;5068;51.286;7.518;2023-07-13T06:09:48;99399.00;;;17.60
10058;BMP180;5068;51.286;7.518;2023-07-13T06:11:25;99400.00;;;17.70
10058;BMP180;5068;51.286;7.518;2023-07-13T06:12:59;99404.00;;;17.80
10058;BMP180;5068;51.286;7.518;2023-07-13T06:14:31;99416.00;;;17.80
10058;BMP180;5068;51.286;7.518;2023-07-13T06:16:05;99405.00;;;17.90
10058;BMP180;5068;51.286;7.518;2023-07-13T06:17:39;99407.00;;;18.00
10058;BMP180;5068;51.286;7.518;2023-07-13T06:19:13;99407.00;;;18.00
10058;BMP180;5068;51.286;7.518;2023-07-13T06:20:47;99407.00;;;18.00
10058;BMP180;5068;51.286;7.518;2023-07-13T06:22:19;99399.00;;;18.10
10058;BMP180;5068;51.286;7.518;2023-07-13T06:23:52;99407.00;;;18.10
10058;BMP180;5068;51.286;7.518;2023-07-13T06:25:26;99408.00;;;18.20
10058;BMP180;5068;51.286;7.518;2023-07-13T06:26:59;99422.00;;;18.20
10058;BMP180;5068;51.286;7.518;2023-07-13T06:28:34;99414.00;;;18.30
10058;BMP180;5068;51.286;7.518;2023-07-13T06:30:08;99412.00;;;18.30
10058;BMP180;5068;51.286;7.518;2023-07-13T06:31:42;99422.00;;;18.30
10058;BMP180;5068;51.286;7.518;2023-07-13T06:33:14;99428.00;;;18.40
10058;BMP180;5068;51.286;7.518;2023-07-13T06:34:49;99419.00;;;18.40
10058;BMP180;5068;51.286;7.518;2023-07-13T06:36:23;99423.00;;;18.40
10058;BMP180;5068;51.286;7.518;2023-07-13T06:37:56;99425.00;;;18.50
10058;BMP180;5068;51.286;7.518;2023-07-13T06:39:30;99425.00;;;18.50
10058;BMP180;5068;51.286;7.518;2023-07-13T06:41:03;99430.00;;;18.50
10058;BMP180;5068;51.286;7.518;2023-07-13T06:42:37;99428.00;;;18.50
10058;BMP180;5068;51.286;7.518;2023-07-13T06:44:10;99428.00;;;18.50
10058;BMP180;5068;51.286;7.518;2023-07-13T06:45:46;99437.00;;;18.60
10058;BMP180;5068;51.286;7.518;2023-07-13T06:47:20;99428.00;;;18.60
10058;BMP180;5068;51.286;7.518;2023-07-13T06:48:53;99430.00;;;18.60
10058;BMP180;5068;51.286;7.518;2023-07-13T06:50:27;99435.00;;;18.70
10058;BMP180;5068;51.286;7.518;2023-07-13T06:52:01;99433.00;;;18.70
10058;BMP180;5068;51.286;7.518;2023-07-13T06:53:34;99436.00;;;18.80
10058;BMP180;5068;51.286;7.518;2023-07-13T06:55:08;99433.00;;;18.80
10058;BMP180;5068;51.286;7.518;2023-07-13T06:56:41;99440.00;;;18.80
10058;BMP180;5068;51.286;7.518;2023-07-13T06:58:16;99436.00;;;18.80
10058;BMP180;5068;51.286;7.518;2023-07-13T06:59:50;99449.00;;;18.90
10058;BMP180;5068;51.286;7.518;2023-07-13T07:01:23;99438.00;;;18.90
10058;BMP180;5068;51.286;7.518;2023-07-13T07:02:56;99449.00;;;19.00
10058;BMP180;5068;51.286;7.518;2023-07-13T07:04:28;99446.00;;;19.00
10058;BMP180;5068;51.286;7.518;2023-07-13T07:06:14;99448.00;;;19.10
10058;BMP180;5068;51.286;7.518;2023-07-13T07:07:47;99438.00;;;19.20
10058;BMP180;5068;51.286;7.518;2023-07-13T07:09:20;99432.00;;;19.20
10058;BMP180;5068;51.286;7.518;2023-07-13T07:10:53;99452.00;;;19.30
10058;BMP180;5068;51.286;7.518;2023-07-13T07:12:26;99439.00;;;19.40
10058;BMP180;5068;51.286;7.518;2023-07-13T07:13:59;99438.00;;;19.40
10058;BMP180;5068;51.286;7.518;2023-07-13T07:15:31;99444.00;;;19.50
10058;BMP180;5068;51.286;7.518;2023-07-13T07:17:05;99454.00;;;19.50
10058;BMP180;5068;51.286;7.518;2023-07-13T07:18:37;99450.00;;;19.60
10058;BMP180;5068;51.286;7.518;2023-07-13T07:20:11;99440.00;;;19.70
10058;BMP180;5068;51.286;7.518;2023-07-13T07:21:45;99448.00;;;19.70
10058;BMP180;5068;51.286;7.518;2023-07-13T07:23:18;99445.00;;;19.80
10058;BMP180;5068;51.286;7.518;2023-07-13T07:24:51;99453.00;;;19.80
10058;BMP180;5068;51.286;7.518;2023-07-13T07:26:24;99437.00;;;19.90
10058;BMP180;5068;51.286;7.518;2023-07-13T07:28:01;99440.00;;;19.90
10058;BMP180;5068;51.286;7.518;2023-07-13T07:29:36;99447.00;;;19.90
10058;BMP180;5068;51.286;7.518;2023-07-13T07:31:21;99441.00;;;20.00
10058;BMP180;5068;51.286;7.518;2023-07-13T07:32:56;99446.00;;;20.00
10058;BMP180;5068;51.286;7.518;2023-07-13T07:34:31;99451.00;;;20.10
10058;BMP180;5068;51.286;7.518;2023-07-13T07:36:04;99443.00;;;20.10
10058;BMP180;5068;51.286;7.518;2023-07-13T07:37:42;99451.00;;;20.20
10058;BMP180;5068;51.286;7.518;2023-07-13T07:39:18;99453.00;;;20.20
10058;BMP180;5068;51.286;7.518;2023-07-13T07:40:50;99455.00;;;20.30
10058;BMP180;5068;51.286;7.518;2023-07-13T07:42:26;99449.00;;;20.30
10058;BMP180;5068;51.286;7.518;2023-07-13T07:43:59;99445.00;;;20.40
10058;BMP180;5068;51.286;7.518;2023-07-13T07:45:32;99451.00;;;20.40
10058;BMP180;5068;51.286;7.518;2023-07-13T07:47:05;99452.00;;;20.50
10058;BMP180;5068;51.286;7.518;2023-07-13T07:48:39;99458.00;;;20.50
10058;BMP180;5068;51.286;7.518;2023-07-13T07:50:12;99455.00;;;20.60
10058;BMP180;5068;51.286;7.518;2023-07-13T07:51:44;99443.00;;;20.70
10058;BMP180;5068;51.286;7.518;2023-07-13T07:53:19;99445.00;;;20.70
10058;BMP180;5068;51.286;7.518;2023-07-13T07:54:52;99454.00;;;20.80
10058;BMP180;5068;51.286;7.518;2023-07-13T07:56:27;99441.00;;;20.90
10058;BMP180;5068;51.286;7.518;2023-07-13T07:58:04;99444.00;;;21.00
10058;BMP180;5068;51.286;7.518;2023-07-13T07:59:56;99449.00;;;21.00
10058;BMP180;5068;51.286;7.518;2023-07-13T08:01:33;99451.00;;;21.10
10058;BMP180;5068;51.286;7.518;2023-07-13T08:03:09;99451.00;;;21.20
10058;BMP180;5068;51.286;7.518;2023-07-13T08:04:45;99455.00;;;21.20
10058;BMP180;5068;51.286;7.518;2023-07-13T08:06:20;99451.00;;;21.30
10058;BMP180;5068;51.286;7.518;2023-07-13T08:08:06;99457.00;;;21.30
10058;BMP180;5068;51.286;7.518;2023-07-13T08:09:45;99448.00;;;21.30
10058;BMP180;5068;51.286;7.518;2023-07-13T08:11:19;99457.00;;;21.40
10058;BMP180;5068;51.286;7.518;2023-07-13T08:12:55;99455.00;;;21.40
10058;BMP180;5068;51.286;7.518;2023-07-13T08:14:32;99451.00;;;21.40
10058;BMP180;5068;51.286;7.518;2023-07-13T08:16:24;99451.00;;;21.50
10058;BMP180;5068;51.286;7.518;2023-07-13T08:17:56;99445.00;;;21.50
10058;BMP180;5068;51.286;7.518;2023-07-13T08:19:30;99443.00;;;21.60
10058;BMP180;5068;51.286;7.518;2023-07-13T08:21:05;99451.00;;;21.70
10058;BMP180;5068;51.286;7.518;2023-07-13T08:22:37;99448.00;;;21.70
10058;BMP180;5068;51.286;7.518;2023-07-13T08:24:11;99451.00;;;21.80
10058;BMP180;5068;51.286;7.518;2023-07-13T08:25:52;99449.00;;;21.90
10058;BMP180;5068;51.286;7.518;2023-07-13T08:27:28;99456.00;;;21.90
10058;BMP180;5068;51.286;7.518;2023-07-13T08:29:02;99459.00;;;22.00
10058;BMP180;5068;51.286;7.518;2023-07-13T08:30:35;99449.00;;;22.00
10058;BMP180;5068;51.286;7.518;2023-07-13T08:32:08;99457.00;;;22.00
10058;BMP180;5068;51.286;7.518;2023-07-13T08:33:43;99447.00;;;22.10
10058;BMP180;5068;51.286;7.518;2023-07-13T08:35:15;99460.00;;;22.10
10058;BMP180;5068;51.286;7.518;2023-07-13T08:36:48;99458.00;;;22.10
10058;BMP180;5068;51.286;7.518;2023-07-13T08:38:21;99446.00;;;22.20
10058;BMP180;5068;51.286;7.518;2023-07-13T08:39:54;99452.00;;;22.20
10058;BMP180;5068;51.286;7.518;2023-07-13T08:41:28;99456.00;;;22.20
10058;BMP180;5068;51.286;7.518;2023-07-13T08:43:02;99450.00;;;22.30
10058;BMP180;5068;51.286;7.518;2023-07-13T08:44:46;99443.00;;;22.30
10058;BMP180;5068;51.286;7.518;2023-07-13T08:46:25;99442.00;;;22.30
10058;BMP180;5068;51.286;7.518;2023-07-13T08:48:08;99443.00;;;22.30
10058;BMP180;5068;51.286;7.518;2023-07-13T08:49:43;99445.00;;;22.40
10058;BMP180;5068;51.286;7.518;2023-07-13T08:51:29;99447.00;;;22.50
10058;BMP180;5068;51.286;7.518;2023-07-13T08:53:03;99445.00;;;22.50
10058;BMP180;5068;51.286;7.518;2023-07-13T08:54:41;99451.00;;;22.60
10058;BMP180;5068;51.286;7.518;2023-07-13T08:56:21;99449.00;;;22.60
10058;BMP180;5068;51.286;7.518;2023-07-13T08:58:02;99445.00;;;22.70
10058;BMP180;5068;51.286;7.518;2023-07-13T08:59:36;99443.00;;;22.80
10058;BMP180;5068;51.286;7.518;2023-07-13T09:01:17;99444.00;;;22.90
10058;BMP180;5068;51.286;7.518;2023-07-13T09:02:57;99448.00;;;22.90
10058;BMP180;5068;51.286;7.518;2023-07-13T09:04:36;99443.00;;;23.00
10058;BMP180;5068;51.286;7.518;2023-07-13T09:06:12;99452.00;;;23.00
10058;BMP180;5068;51.286;7.518;2023-07-13T09:08:10;99452.00;;;23.10
10058;BMP180;5068;51.286;7.518;2023-07-13T09:10:05;99448.00;;;23.10
10058;BMP180;5068;51.286;7.518;2023-07-13T09:11:54;99438.00;;;23.10
10058;BMP180;5068;51.286;7.518;2023-07-13T09:13:40;99446.00;;;23.10